sensor_id;sensor_type;location;lat;lon;timestamp;temperature;humidity
15455;DHT22;21057;51.024;7.540;2022-10-16T00:00:30;14.40;99.90
15455;DHT22;21057;51.024;7.540;2022-10-16T00:02:59;14.50;99.90
15455;DHT22;21057;51.024;7.540;2022-10-16T00:05:26;14.40;99.90
15455;DHT22;21057;51.024;7.540;2022-10-16T00:07:52;14.40;99.90
15455;DHT22;21057;51.024;7.540;2022-10-16T00:10:19;14.40;99.90
15455;DHT22;21057;51.024;7.540;2022-10-16T00:12:46;14.40;99.90
15455;DHT22;21057;51.024;7.540;2022-10-16T00:15:13;14.50;99.90
15455;DHT22;21057;51.024;7.540;2022-10-16T00:17:40;14.60;99.90
15455;DHT22;21057;51.024;7.540;2022-10-16T00:20:09;14.40;99.90
15455;DHT22;21057;51.024;7.540;2022-10-16T00:22:35;14.40;99.90
15455;DHT22;21057;51.024;7.540;2022-10-16T00:25:02;14.40;99.90
15455;DHT22;21057;51.024;7.540;2022-10-16T00:27:29;14.50;99.90
15455;DHT22;21057;51.024;7.540;2022-10-16T00:29:56;14.60;99.90
15455;DHT22;21057;51.024;7.540;2022-10-16T00:32:23;14.70;99.90
15455;DHT22;21057;51.024;7.540;2022-10-16T00:34:50;14.80;99.90
15455;DHT22;21057;51.024;7.540;2022-10-16T00:37:21;14.80;99.90
15455;DHT22;21057;51.024;7.540;2022-10-16T00:39:48;15.00;99.90
15455;DHT22;21057;51.024;7.540;2022-10-16T00:42:17;14.90;99.90
15455;DHT22;21057;51.024;7.540;2022-10-16T00:44:47;14.90;99.90
15455;DHT22;21057;51.024;7.540;2022-10-16T00:47:19;14.90;99.90
15455;DHT22;21057;51.024;7.540;2022-10-16T00:49:47;14.80;99.90
15455;DHT22;21057;51.024;7.540;2022-10-16T00:52:16;14.80;99.90
15455;DHT22;21057;51.024;7.540;2022-10-16T00:54:46;14.90;99.90
15455;DHT22;21057;51.024;7.540;2022-10-16T00:57:13;14.90;99.90
15455;DHT22;21057;51.024;7.540;2022-10-16T00:59:41;14.90;99.90
15455;DHT22;21057;51.024;7.540;2022-10-16T01:02:13;14.90;99.90
15455;DHT22;21057;51.024;7.540;2022-10-16T01:04:43;14.80;99.90
15455;DHT22;21057;51.024;7.540;2022-10-16T01:07:16;14.80;99.90
15455;DHT22;21057;51.024;7.540;2022-10-16T01:09:57;14.80;99.90
15455;DHT22;21057;51.024;7.540;2022-10-16T01:12:34;14.80;99.90
15455;DHT22;21057;51.024;7.540;2022-10-16T01:15:09;14.70;99.90
15455;DHT22;21057;51.024;7.540;2022-10-16T01:17:41;14.60;99.90
15455;DHT22;21057;51.024;7.540;2022-10-16T01:20:14;14.60;99.90
15455;DHT22;21057;51.024;7.540;2022-10-16T01:22:55;14.40;99.90
15455;DHT22;21057;51.024;7.540;2022-10-16T01:25:37;14.30;99.90
15455;DHT22;21057;51.024;7.540;2022-10-16T01:28:09;14.40;99.90
15455;DHT22;21057;51.024;7.540;2022-10-16T01:30:40;14.30;99.90
15455;DHT22;21057;51.024;7.540;2022-10-16T01:33:12;14.40;99.90
15455;DHT22;21057;51.024;7.540;2022-10-16T01:35:43;14.50;99.90
15455;DHT22;21057;51.024;7.540;2022-10-16T01:38:16;14.60;99.90
15455;DHT22;21057;51.024;7.540;2022-10-16T01:40:51;14.50;99.90
15455;DHT22;21057;51.024;7.540;2022-10-16T01:43:24;14.40;99.90
15455;DHT22;21057;51.024;7.540;2022-10-16T01:45:52;14.30;99.90
15455;DHT22;21057;51.024;7.540;2022-10-16T01:48:21;14.20;99.90
15455;DHT22;21057;51.024;7.540;2022-10-16T01:50:54;14.10;99.90
15455;DHT22;21057;51.024;7.540;2022-10-16T01:53:22;14.00;99.90
15455;DHT22;21057;51.024;7.540;2022-10-16T01:55:50;14.00;99.90
15455;DHT22;21057;51.024;7.540;2022-10-16T01:58:20;13.90;99.90
15455;DHT22;21057;51.024;7.540;2022-10-16T02:00:48;13.90;99.90
15455;DHT22;21057;51.024;7.540;2022-10-16T02:03:18;13.80;99.90
15455;DHT22;21057;51.024;7.540;2022-10-16T02:05:47;13.80;99.90
15455;DHT22;21057;51.024;7.540;2022-10-16T02:08:16;13.80;99.90
15455;DHT22;21057;51.024;7.540;2022-10-16T02:10:43;13.70;99.90
15455;DHT22;21057;51.024;7.540;2022-10-16T02:13:14;13.70;99.90
15455;DHT22;21057;51.024;7.540;2022-10-16T02:15:43;13.60;99.90
15455;DHT22;21057;51.024;7.540;2022-10-16T02:18:10;13.60;99.90
15455;DHT22;21057;51.024;7.540;2022-10-16T02:20:42;13.60;99.90
15455;DHT22;21057;51.024;7.540;2022-10-16T02:23:16;13.60;99.90
15455;DHT22;21057;51.024;7.540;2022-10-16T02:25:46;13.50;99.90
15455;DHT22;21057;51.024;7.540;2022-10-16T02:28:16;13.40;99.90
15455;DHT22;21057;51.024;7.540;2022-10-16T02:30:50;13.40;99.90
15455;DHT22;21057;51.024;7.540;2022-10-16T02:33:19;13.40;99.90
15455;DHT22;21057;51.024;7.540;2022-10-16T02:35:49;13.40;99.90
15455;DHT22;21057;51.024;7.540;2022-10-16T02:38:18;13.40;99.90
15455;DHT22;21057;51.024;7.540;2022-10-16T02:40:46;13.40;99.90
15455;DHT22;21057;51.024;7.540;2022-10-16T02:43:13;13.40;99.90
15455;DHT22;21057;51.024;7.540;2022-10-16T02:45:40;13.20;99.90
15455;DHT22;21057;51.024;7.540;2022-10-16T02:48:08;13.40;99.90
15455;DHT22;21057;51.024;7.540;2022-10-16T02:50:35;13.50;99.90
15455;DHT22;21057;51.024;7.540;2022-10-16T02:53:02;13.50;99.90
15455;DHT22;21057;51.024;7.540;2022-10-16T02:55:29;13.60;99.90
15455;DHT22;21057;51.024;7.540;2022-10-16T02:57:56;13.60;99.90
15455;DHT22;21057;51.024;7.540;2022-10-16T03:00:23;13.50;99.90
15455;DHT22;21057;51.024;7.540;2022-10-16T03:02:50;13.50;99.90
15455;DHT22;21057;51.024;7.540;2022-10-16T03:05:18;13.60;99.90
15455;DHT22;21057;51.024;7.540;2022-10-16T03:07:45;13.60;99.90
15455;DHT22;21057;51.024;7.540;2022-10-16T03:10:12;13.60;99.90
15455;DHT22;21057;51.024;7.540;2022-10-16T03:12:39;13.70;99.90
15455;DHT22;21057;51.024;7.540;2022-10-16T03:15:06;13.80;99.90
15455;DHT22;21057;51.024;7.540;2022-10-16T03:17:33;13.80;99.90
15455;DHT22;21057;51.024;7.540;2022-10-16T03:20:00;13.70;99.90
15455;DHT22;21057;51.024;7.540;2022-10-16T03:22:29;13.70;99.90
15455;DHT22;21057;51.024;7.540;2022-10-16T03:24:55;13.70;99.90
15455;DHT22;21057;51.024;7.540;2022-10-16T03:27:22;13.80;99.90
15455;DHT22;21057;51.024;7.540;2022-10-16T03:29:49;13.70;99.90
15455;DHT22;21057;51.024;7.540;2022-10-16T03:32:16;13.60;99.90
15455;DHT22;21057;51.024;7.540;2022-10-16T03:34:43;13.60;99.90
15455;DHT22;21057;51.024;7.540;2022-10-16T03:37:10;13.60;99.90
15455;DHT22;21057;51.024;7.540;2022-10-16T03:39:39;13.60;99.90
15455;DHT22;21057;51.024;7.540;2022-10-16T03:42:06;13.70;99.90
15455;DHT22;21057;51.024;7.540;2022-10-16T03:44:32;13.80;99.90
15455;DHT22;21057;51.024;7.540;2022-10-16T03:46:59;13.90;99.90
15455;DHT22;21057;51.024;7.540;2022-10-16T03:49:26;13.80;99.90
15455;DHT22;21057;51.024;7.540;2022-10-16T03:51:53;13.80;99.90
15455;DHT22;21057;51.024;7.540;2022-10-16T03:54:20;13.70;99.90
15455;DHT22;21057;51.024;7.540;2022-10-16T03:56:49;13.70;99.90
15455;DHT22;21057;51.024;7.540;2022-10-16T03:59:16;13.70;99.90
15455;DHT22;21057;51.024;7.540;2022-10-16T04:01:43;13.60;99.90
15455;DHT22;21057;51.024;7.540;2022-10-16T04:04:09;13.70;99.90
15455;DHT22;21057;51.024;7.540;2022-10-16T04:06:36;13.60;99.90
15455;DHT22;21057;51.024;7.540;2022-10-16T04:09:03;13.60;99.90
15455;DHT22;21057;51.024;7.540;2022-10-16T04:11:30;13.70;99.90
15455;DHT22;21057;51.024;7.540;2022-10-16T04:13:58;13.70;99.90
15455;DHT22;21057;51.024;7.540;2022-10-16T04:16:25;13.70;99.90
15455;DHT22;21057;51.024;7.540;2022-10-16T04:18:52;13.70;99.90
15455;DHT22;21057;51.024;7.540;2022-10-16T04:21:18;13.80;99.90
15455;DHT22;21057;51.024;7.540;2022-10-16T04:23:45;13.80;99.90
15455;DHT22;21057;51.024;7.540;2022-10-16T04:26:12;13.90;99.90
15455;DHT22;21057;51.024;7.540;2022-10-16T04:28:39;13.90;99.90
15455;DHT22;21057;51.024;7.540;2022-10-16T04:31:07;13.80;99.90
15455;DHT22;21057;51.024;7.540;2022-10-16T04:33:34;13.80;99.90
15455;DHT22;21057;51.024;7.540;2022-10-16T04:36:02;13.90;99.90
15455;DHT22;21057;51.024;7.540;2022-10-16T04:38:30;13.90;99.90
15455;DHT22;21057;51.024;7.540;2022-10-16T04:40:56;13.80;99.90
15455;DHT22;21057;51.024;7.540;2022-10-16T04:43:23;13.90;99.90
15455;DHT22;21057;51.024;7.540;2022-10-16T04:45:51;14.00;99.90
15455;DHT22;21057;51.024;7.540;2022-10-16T04:48:19;14.00;99.90
15455;DHT22;21057;51.024;7.540;2022-10-16T04:50:46;13.90;99.90
15455;DHT22;21057;51.024;7.540;2022-10-16T04:53:13;13.90;99.90
15455;DHT22;21057;51.024;7.540;2022-10-16T04:55:41;13.90;99.90
15455;DHT22;21057;51.024;7.540;2022-10-16T04:58:08;13.90;99.90
15455;DHT22;21057;51.024;7.540;2022-10-16T05:00:35;14.10;99.90
15455;DHT22;21057;51.024;7.540;2022-10-16T05:03:04;14.10;99.90
15455;DHT22;21057;51.024;7.540;2022-10-16T05:05:34;14.20;99.90
15455;DHT22;21057;51.024;7.540;2022-10-16T05:08:01;14.20;99.90
15455;DHT22;21057;51.024;7.540;2022-10-16T05:10:28;14.30;99.90
15455;DHT22;21057;51.024;7.540;2022-10-16T05:12:55;14.40;99.90
15455;DHT22;21057;51.024;7.540;2022-10-16T05:15:22;14.30;99.90
15455;DHT22;21057;51.024;7.540;2022-10-16T05:17:52;14.40;99.90
15455;DHT22;21057;51.024;7.540;2022-10-16T05:20:19;14.30;99.90
15455;DHT22;21057;51.024;7.540;2022-10-16T05:22:48;14.40;99.90
15455;DHT22;21057;51.024;7.540;2022-10-16T05:25:15;14.40;99.90
15455;DHT22;21057;51.024;7.540;2022-10-16T05:27:42;14.40;99.90
15455;DHT22;21057;51.024;7.540;2022-10-16T05:30:09;14.50;99.90
15455;DHT22;21057;51.024;7.540;2022-10-16T05:32:36;14.50;99.90
15455;DHT22;21057;51.024;7.540;2022-10-16T05:35:04;14.50;99.90
15455;DHT22;21057;51.024;7.540;2022-10-16T05:37:30;14.40;99.90
15455;DHT22;21057;51.024;7.540;2022-10-16T05:39:59;14.40;99.90
15455;DHT22;21057;51.024;7.540;2022-10-16T05:42:25;14.40;99.90
15455;DHT22;21057;51.024;7.540;2022-10-16T05:44:53;14.40;99.90
15455;DHT22;21057;51.024;7.540;2022-10-16T05:47:20;14.50;99.90
15455;DHT22;21057;51.024;7.540;2022-10-16T05:49:47;14.60;99.90
15455;DHT22;21057;51.024;7.540;2022-10-16T05:52:14;14.60;99.90
15455;DHT22;21057;51.024;7.540;2022-10-16T05:54:41;14.60;99.90
15455;DHT22;21057;51.024;7.540;2022-10-16T05:57:09;14.40;99.90
15455;DHT22;21057;51.024;7.540;2022-10-16T05:59:36;14.40;99.90
15455;DHT22;21057;51.024;7.540;2022-10-16T06:02:03;14.40;99.90
15455;DHT22;21057;51.024;7.540;2022-10-16T06:04:30;14.50;99.90
15455;DHT22;21057;51.024;7.540;2022-10-16T06:06:58;14.50;99.90
15455;DHT22;21057;51.024;7.540;2022-10-16T06:09:26;14.60;99.90
15455;DHT22;21057;51.024;7.540;2022-10-16T06:11:53;14.60;99.90
15455;DHT22;21057;51.024;7.540;2022-10-16T06:14:21;14.60;99.90
15455;DHT22;21057;51.024;7.540;2022-10-16T06:16:48;14.60;99.90
15455;DHT22;21057;51.024;7.540;2022-10-16T06:19:15;14.60;99.90
15455;DHT22;21057;51.024;7.540;2022-10-16T06:21:43;14.70;99.90
15455;DHT22;21057;51.024;7.540;2022-10-16T06:24:10;14.60;99.90
15455;DHT22;21057;51.024;7.540;2022-10-16T06:26:37;14.70;99.90
15455;DHT22;21057;51.024;7.540;2022-10-16T06:29:04;14.60;99.90
15455;DHT22;21057;51.024;7.540;2022-10-16T06:31:33;14.50;99.90
15455;DHT22;21057;51.024;7.540;2022-10-16T06:34:00;14.50;99.90
15455;DHT22;21057;51.024;7.540;2022-10-16T06:36:27;14.50;99.90
15455;DHT22;21057;51.024;7.540;2022-10-16T06:38:54;14.40;99.90
15455;DHT22;21057;51.024;7.540;2022-10-16T06:41:22;14.40;99.90
15455;DHT22;21057;51.024;7.540;2022-10-16T06:43:50;14.50;99.90
15455;DHT22;21057;51.024;7.540;2022-10-16T06:46:20;14.70;99.90
15455;DHT22;21057;51.024;7.540;2022-10-16T06:48:49;14.80;99.90
15455;DHT22;21057;51.024;7.540;2022-10-16T06:51:17;14.80;99.90
15455;DHT22;21057;51.024;7.540;2022-10-16T06:53:46;14.70;99.90
15455;DHT22;21057;51.024;7.540;2022-10-16T06:56:16;14.70;99.90
15455;DHT22;21057;51.024;7.540;2022-10-16T06:58:43;14.70;99.90
15455;DHT22;21057;51.024;7.540;2022-10-16T07:01:11;14.80;99.90
15455;DHT22;21057;51.024;7.540;2022-10-16T07:03:39;14.90;99.90
15455;DHT22;21057;51.024;7.540;2022-10-16T07:06:10;14.90;99.90
15455;DHT22;21057;51.024;7.540;2022-10-16T07:08:39;15.00;99.90
15455;DHT22;21057;51.024;7.540;2022-10-16T07:11:07;15.00;99.90
15455;DHT22;21057;51.024;7.540;2022-10-16T07:13:34;15.20;99.90
15455;DHT22;21057;51.024;7.540;2022-10-16T07:16:04;15.30;99.90
15455;DHT22;21057;51.024;7.540;2022-10-16T07:18:31;15.40;99.90
15455;DHT22;21057;51.024;7.540;2022-10-16T07:21:03;15.40;99.90
15455;DHT22;21057;51.024;7.540;2022-10-16T07:23:32;15.50;99.90
15455;DHT22;21057;51.024;7.540;2022-10-16T07:25:59;15.60;99.90
15455;DHT22;21057;51.024;7.540;2022-10-16T07:28:26;15.60;99.90
15455;DHT22;21057;51.024;7.540;2022-10-16T07:30:53;15.70;99.90
15455;DHT22;21057;51.024;7.540;2022-10-16T07:33:20;15.60;99.90
15455;DHT22;21057;51.024;7.540;2022-10-16T07:35:51;15.70;99.90
15455;DHT22;21057;51.024;7.540;2022-10-16T07:38:18;15.60;99.90
15455;DHT22;21057;51.024;7.540;2022-10-16T07:40:47;15.80;99.90
15455;DHT22;21057;51.024;7.540;2022-10-16T07:43:14;15.70;99.90
15455;DHT22;21057;51.024;7.540;2022-10-16T07:45:48;16.00;99.90
15455;DHT22;21057;51.024;7.540;2022-10-16T07:48:15;15.90;99.90
15455;DHT22;21057;51.024;7.540;2022-10-16T07:50:43;15.80;99.90
15455;DHT22;21057;51.024;7.540;2022-10-16T07:53:11;15.70;99.90
15455;DHT22;21057;51.024;7.540;2022-10-16T07:55:38;15.90;99.90
15455;DHT22;21057;51.024;7.540;2022-10-16T07:58:07;15.90;99.90
15455;DHT22;21057;51.024;7.540;2022-10-16T08:00:35;15.90;99.90
15455;DHT22;21057;51.024;7.540;2022-10-16T08:03:02;15.90;99.90
15455;DHT22;21057;51.024;7.540;2022-10-16T08:05:31;15.90;99.90
15455;DHT22;21057;51.024;7.540;2022-10-16T08:07:58;15.80;99.90
15455;DHT22;21057;51.024;7.540;2022-10-16T08:10:26;15.90;99.90
15455;DHT22;21057;51.024;7.540;2022-10-16T08:12:53;16.00;99.90
15455;DHT22;21057;51.024;7.540;2022-10-16T08:15:22;16.00;99.90
15455;DHT22;21057;51.024;7.540;2022-10-16T08:17:59;16.00;99.90
15455;DHT22;21057;51.024;7.540;2022-10-16T08:20:26;15.90;99.90
15455;DHT22;21057;51.024;7.540;2022-10-16T08:22:54;15.70;99.90
15455;DHT22;21057;51.024;7.540;2022-10-16T08:25:21;15.60;99.90
15455;DHT22;21057;51.024;7.540;2022-10-16T08:27:48;15.70;99.90
15455;DHT22;21057;51.024;7.540;2022-10-16T08:30:16;15.80;99.90
15455;DHT22;21057;51.024;7.540;2022-10-16T08:32:45;15.80;99.90
15455;DHT22;21057;51.024;7.540;2022-10-16T08:35:12;15.90;99.90
15455;DHT22;21057;51.024;7.540;2022-10-16T08:37:40;16.00;99.90
15455;DHT22;21057;51.024;7.540;2022-10-16T08:40:17;15.90;99.90
15455;DHT22;21057;51.024;7.540;2022-10-16T08:42:56;16.10;99.90
15455;DHT22;21057;51.024;7.540;2022-10-16T08:45:34;16.20;99.90
15455;DHT22;21057;51.024;7.540;2022-10-16T08:48:14;16.30;99.90
15455;DHT22;21057;51.024;7.540;2022-10-16T08:50:43;16.30;99.90
15455;DHT22;21057;51.024;7.540;2022-10-16T08:53:15;16.40;99.90
15455;DHT22;21057;51.024;7.540;2022-10-16T08:55:46;16.50;99.90
15455;DHT22;21057;51.024;7.540;2022-10-16T08:58:15;16.60;99.90
15455;DHT22;21057;51.024;7.540;2022-10-16T09:00:44;16.70;99.90
15455;DHT22;21057;51.024;7.540;2022-10-16T09:03:21;16.90;99.90
15455;DHT22;21057;51.024;7.540;2022-10-16T09:06:02;16.90;99.90
15455;DHT22;21057;51.024;7.540;2022-10-16T09:08:39;17.00;99.90
15455;DHT22;21057;51.024;7.540;2022-10-16T09:11:11;17.00;99.90
15455;DHT22;21057;51.024;7.540;2022-10-16T09:13:48;17.20;99.90
15455;DHT22;21057;51.024;7.540;2022-10-16T09:16:19;17.20;99.90
15455;DHT22;21057;51.024;7.540;2022-10-16T09:18:55;17.30;99.90
15455;DHT22;21057;51.024;7.540;2022-10-16T09:21:27;17.40;99.90
15455;DHT22;21057;51.024;7.540;2022-10-16T09:23:59;17.40;99.90
15455;DHT22;21057;51.024;7.540;2022-10-16T09:26:26;17.70;99.90
15455;DHT22;21057;51.024;7.540;2022-10-16T09:28:53;17.70;99.90
15455;DHT22;21057;51.024;7.540;2022-10-16T09:31:22;17.80;99.90
15455;DHT22;21057;51.024;7.540;2022-10-16T09:33:54;18.10;99.90
15455;DHT22;21057;51.024;7.540;2022-10-16T09:36:22;18.80;99.90
15455;DHT22;21057;51.024;7.540;2022-10-16T09:38:49;19.60;99.90
15455;DHT22;21057;51.024;7.540;2022-10-16T09:41:21;20.60;99.90
15455;DHT22;21057;51.024;7.540;2022-10-16T09:43:53;21.30;99.90
15455;DHT22;21057;51.024;7.540;2022-10-16T09:46:29;22.10;99.90
15455;DHT22;21057;51.024;7.540;2022-10-16T09:48:59;22.80;99.90
15455;DHT22;21057;51.024;7.540;2022-10-16T09:51:28;23.40;99.90
15455;DHT22;21057;51.024;7.540;2022-10-16T09:53:57;23.70;99.90
15455;DHT22;21057;51.024;7.540;2022-10-16T09:56:26;23.60;99.90
15455;DHT22;21057;51.024;7.540;2022-10-16T09:58:55;24.10;99.90
15455;DHT22;21057;51.024;7.540;2022-10-16T10:01:26;24.60;98.80
15455;DHT22;21057;51.024;7.540;2022-10-16T10:03:57;24.40;97.80
15455;DHT22;21057;51.024;7.540;2022-10-16T10:06:29;24.40;97.60
15455;DHT22;21057;51.024;7.540;2022-10-16T10:08:59;24.70;96.30
15455;DHT22;21057;51.024;7.540;2022-10-16T10:11:44;24.70;97.00
15455;DHT22;21057;51.024;7.540;2022-10-16T10:14:21;24.20;97.60
15455;DHT22;21057;51.024;7.540;2022-10-16T10:16:49;24.20;96.60
15455;DHT22;21057;51.024;7.540;2022-10-16T10:19:20;24.50;95.70
15455;DHT22;21057;51.024;7.540;2022-10-16T10:21:47;24.60;97.80
15455;DHT22;21057;51.024;7.540;2022-10-16T10:24:16;24.80;95.70
15455;DHT22;21057;51.024;7.540;2022-10-16T10:26:49;24.20;94.70
15455;DHT22;21057;51.024;7.540;2022-10-16T10:29:25;24.30;95.50
15455;DHT22;21057;51.024;7.540;2022-10-16T10:32:00;24.60;96.10
15455;DHT22;21057;51.024;7.540;2022-10-16T10:34:47;24.90;93.70
15455;DHT22;21057;51.024;7.540;2022-10-16T10:37:29;24.80;95.00
15455;DHT22;21057;51.024;7.540;2022-10-16T10:40:04;24.50;93.30
15455;DHT22;21057;51.024;7.540;2022-10-16T10:42:37;24.40;94.00
15455;DHT22;21057;51.024;7.540;2022-10-16T10:45:20;24.30;94.70
15455;DHT22;21057;51.024;7.540;2022-10-16T10:48:12;24.30;96.50
15455;DHT22;21057;51.024;7.540;2022-10-16T10:50:46;25.00;93.60
15455;DHT22;21057;51.024;7.540;2022-10-16T10:53:29;24.30;93.70
15455;DHT22;21057;51.024;7.540;2022-10-16T10:56:04;23.30;94.40
15455;DHT22;21057;51.024;7.540;2022-10-16T10:58:52;22.90;95.70
15455;DHT22;21057;51.024;7.540;2022-10-16T11:01:29;22.60;98.20
15455;DHT22;21057;51.024;7.540;2022-10-16T11:04:19;23.00;97.90
15455;DHT22;21057;51.024;7.540;2022-10-16T11:06:54;22.60;97.70
15455;DHT22;21057;51.024;7.540;2022-10-16T11:09:24;22.20;99.30
15455;DHT22;21057;51.024;7.540;2022-10-16T11:11:56;22.10;99.90
15455;DHT22;21057;51.024;7.540;2022-10-16T11:14:28;21.60;99.60
15455;DHT22;21057;51.024;7.540;2022-10-16T11:16:59;21.10;99.90
15455;DHT22;21057;51.024;7.540;2022-10-16T11:19:35;21.10;99.90
15455;DHT22;21057;51.024;7.540;2022-10-16T11:22:11;21.10;99.90
15455;DHT22;21057;51.024;7.540;2022-10-16T11:24:45;20.90;99.90
15455;DHT22;21057;51.024;7.540;2022-10-16T11:27:17;20.90;99.90
15455;DHT22;21057;51.024;7.540;2022-10-16T11:29:49;20.90;99.90
15455;DHT22;21057;51.024;7.540;2022-10-16T11:32:22;21.10;99.90
15455;DHT22;21057;51.024;7.540;2022-10-16T11:34:55;20.70;99.90
15455;DHT22;21057;51.024;7.540;2022-10-16T11:37:28;20.70;99.90
15455;DHT22;21057;51.024;7.540;2022-10-16T11:40:05;20.50;99.90
15455;DHT22;21057;51.024;7.540;2022-10-16T11:42:40;20.40;99.90
15455;DHT22;21057;51.024;7.540;2022-10-16T11:45:16;20.20;99.90
15455;DHT22;21057;51.024;7.540;2022-10-16T11:47:53;20.00;99.90
15455;DHT22;21057;51.024;7.540;2022-10-16T11:50:24;20.00;99.90
15455;DHT22;21057;51.024;7.540;2022-10-16T11:53:00;19.90;99.90
15455;DHT22;21057;51.024;7.540;2022-10-16T11:55:32;19.90;99.90
15455;DHT22;21057;51.024;7.540;2022-10-16T11:58:04;19.80;99.90
15455;DHT22;21057;51.024;7.540;2022-10-16T12:00:37;20.00;99.90
15455;DHT22;21057;51.024;7.540;2022-10-16T12:03:12;20.20;99.90
15455;DHT22;21057;51.024;7.540;2022-10-16T12:05:57;20.50;99.90
15455;DHT22;21057;51.024;7.540;2022-10-16T12:08:28;20.50;99.90
15455;DHT22;21057;51.024;7.540;2022-10-16T12:11:07;20.40;99.90
15455;DHT22;21057;51.024;7.540;2022-10-16T12:13:35;20.40;99.90
15455;DHT22;21057;51.024;7.540;2022-10-16T12:16:07;20.50;99.90
15455;DHT22;21057;51.024;7.540;2022-10-16T12:18:46;20.60;99.90
15455;DHT22;21057;51.024;7.540;2022-10-16T12:21:15;20.70;99.90
15455;DHT22;21057;51.024;7.540;2022-10-16T12:23:49;20.80;99.90
15455;DHT22;21057;51.024;7.540;2022-10-16T12:26:24;20.70;99.90
15455;DHT22;21057;51.024;7.540;2022-10-16T12:28:52;20.80;99.90
15455;DHT22;21057;51.024;7.540;2022-10-16T12:31:19;20.70;99.90
15455;DHT22;21057;51.024;7.540;2022-10-16T12:33:59;20.90;99.90
15455;DHT22;21057;51.024;7.540;2022-10-16T12:36:29;20.80;99.90
15455;DHT22;21057;51.024;7.540;2022-10-16T12:38:58;20.80;99.90
15455;DHT22;21057;51.024;7.540;2022-10-16T12:41:27;20.80;99.90
15455;DHT22;21057;51.024;7.540;2022-10-16T12:43:54;20.80;99.90
15455;DHT22;21057;51.024;7.540;2022-10-16T12:46:33;20.80;99.90
15455;DHT22;21057;51.024;7.540;2022-10-16T12:49:21;20.80;99.90
15455;DHT22;21057;51.024;7.540;2022-10-16T12:51:50;20.60;99.90
15455;DHT22;21057;51.024;7.540;2022-10-16T12:54:20;20.50;99.90
15455;DHT22;21057;51.024;7.540;2022-10-16T12:56:57;20.50;99.90
15455;DHT22;21057;51.024;7.540;2022-10-16T12:59:34;20.60;99.90
15455;DHT22;21057;51.024;7.540;2022-10-16T13:02:39;20.70;99.90
15455;DHT22;21057;51.024;7.540;2022-10-16T13:05:28;20.60;99.90
15455;DHT22;21057;51.024;7.540;2022-10-16T13:08:06;20.60;99.90
15455;DHT22;21057;51.024;7.540;2022-10-16T13:10:41;20.50;99.90
15455;DHT22;21057;51.024;7.540;2022-10-16T13:13:30;20.30;99.90
15455;DHT22;21057;51.024;7.540;2022-10-16T13:16:12;20.30;99.90
15455;DHT22;21057;51.024;7.540;2022-10-16T13:18:51;20.20;99.90
15455;DHT22;21057;51.024;7.540;2022-10-16T13:21:31;19.90;99.90
15455;DHT22;21057;51.024;7.540;2022-10-16T13:24:04;19.90;99.90
15455;DHT22;21057;51.024;7.540;2022-10-16T13:26:42;20.00;99.90
15455;DHT22;21057;51.024;7.540;2022-10-16T13:29:12;20.00;99.90
15455;DHT22;21057;51.024;7.540;2022-10-16T13:31:40;19.90;99.90
15455;DHT22;21057;51.024;7.540;2022-10-16T13:34:13;19.80;99.90
15455;DHT22;21057;51.024;7.540;2022-10-16T13:36:45;19.90;99.90
15455;DHT22;21057;51.024;7.540;2022-10-16T13:39:13;20.00;99.90
15455;DHT22;21057;51.024;7.540;2022-10-16T13:41:42;20.00;99.90
15455;DHT22;21057;51.024;7.540;2022-10-16T13:44:14;19.90;99.90
15455;DHT22;21057;51.024;7.540;2022-10-16T13:46:42;19.70;99.90
15455;DHT22;21057;51.024;7.540;2022-10-16T13:49:13;19.70;99.90
15455;DHT22;21057;51.024;7.540;2022-10-16T13:51:40;19.70;99.90
15455;DHT22;21057;51.024;7.540;2022-10-16T13:54:09;19.60;99.90
15455;DHT22;21057;51.024;7.540;2022-10-16T13:56:38;19.60;99.90
15455;DHT22;21057;51.024;7.540;2022-10-16T13:59:22;19.70;99.90
15455;DHT22;21057;51.024;7.540;2022-10-16T14:01:52;19.60;99.90
15455;DHT22;21057;51.024;7.540;2022-10-16T14:04:20;19.50;99.90
15455;DHT22;21057;51.024;7.540;2022-10-16T14:06:49;19.50;99.90
15455;DHT22;21057;51.024;7.540;2022-10-16T14:09:22;19.40;99.90
15455;DHT22;21057;51.024;7.540;2022-10-16T14:11:51;19.40;99.90
15455;DHT22;21057;51.024;7.540;2022-10-16T14:14:20;19.30;99.90
15455;DHT22;21057;51.024;7.540;2022-10-16T14:16:48;19.30;99.90
15455;DHT22;21057;51.024;7.540;2022-10-16T14:19:19;19.40;99.90
15455;DHT22;21057;51.024;7.540;2022-10-16T14:21:47;19.60;99.90
15455;DHT22;21057;51.024;7.540;2022-10-16T14:24:24;19.80;99.90
15455;DHT22;21057;51.024;7.540;2022-10-16T14:26:52;20.00;99.90
15455;DHT22;21057;51.024;7.540;2022-10-16T14:29:22;20.10;99.90
15455;DHT22;21057;51.024;7.540;2022-10-16T14:31:59;20.10;99.90
15455;DHT22;21057;51.024;7.540;2022-10-16T14:34:29;20.10;99.90
15455;DHT22;21057;51.024;7.540;2022-10-16T14:36:59;20.10;99.90
15455;DHT22;21057;51.024;7.540;2022-10-16T14:39:30;20.00;99.90
15455;DHT22;21057;51.024;7.540;2022-10-16T14:41:58;19.90;99.90
15455;DHT22;21057;51.024;7.540;2022-10-16T14:44:31;19.90;99.90
15455;DHT22;21057;51.024;7.540;2022-10-16T14:47:07;19.90;99.90
15455;DHT22;21057;51.024;7.540;2022-10-16T14:49:35;20.00;99.90
15455;DHT22;21057;51.024;7.540;2022-10-16T14:52:08;20.00;99.90
15455;DHT22;21057;51.024;7.540;2022-10-16T14:54:35;19.90;99.90
15455;DHT22;21057;51.024;7.540;2022-10-16T14:57:02;20.00;99.90
15455;DHT22;21057;51.024;7.540;2022-10-16T14:59:32;19.70;99.90
15455;DHT22;21057;51.024;7.540;2022-10-16T15:02:01;19.50;99.90
15455;DHT22;21057;51.024;7.540;2022-10-16T15:04:35;19.50;99.90
15455;DHT22;21057;51.024;7.540;2022-10-16T15:07:02;19.50;99.90
15455;DHT22;21057;51.024;7.540;2022-10-16T15:09:29;19.40;99.90
15455;DHT22;21057;51.024;7.540;2022-10-16T15:11:58;19.30;99.90
15455;DHT22;21057;51.024;7.540;2022-10-16T15:14:24;19.40;99.90
15455;DHT22;21057;51.024;7.540;2022-10-16T15:16:53;19.40;99.90
15455;DHT22;21057;51.024;7.540;2022-10-16T15:19:19;19.40;99.90
15455;DHT22;21057;51.024;7.540;2022-10-16T15:21:47;19.30;99.90
15455;DHT22;21057;51.024;7.540;2022-10-16T15:24:15;19.10;99.90
15455;DHT22;21057;51.024;7.540;2022-10-16T15:26:42;18.90;99.90
15455;DHT22;21057;51.024;7.540;2022-10-16T15:29:11;18.80;99.90
15455;DHT22;21057;51.024;7.540;2022-10-16T15:31:38;18.70;99.90
15455;DHT22;21057;51.024;7.540;2022-10-16T15:34:10;18.70;99.90
15455;DHT22;21057;51.024;7.540;2022-10-16T15:36:38;18.70;99.90
15455;DHT22;21057;51.024;7.540;2022-10-16T15:39:09;18.70;99.90
15455;DHT22;21057;51.024;7.540;2022-10-16T15:41:38;18.60;99.90
15455;DHT22;21057;51.024;7.540;2022-10-16T15:44:05;18.70;99.90
15455;DHT22;21057;51.024;7.540;2022-10-16T15:46:32;18.50;99.90
15455;DHT22;21057;51.024;7.540;2022-10-16T15:49:00;18.50;99.90